Terminal Aerodrome Forecast
Issued by NWS

Home | Current Version | Previous Version | Graphics & Text | Print | Product List | Glossary On
Versions: 1 2 3 4 5 6 7 8 9 10 11 12 13 14
000
FTUS43 KMPX 211700
TAFAXN
TAF
KAXN 211729Z 2118/2218 14012G19KT P6SM SKC
     FM220000 15011G18KT P6SM SCT250
     FM221300 16018G24KT P6SM BKN015 OVC200=

USA.gov is the U.S. government's official web portal to all federal, state and local government web resources and services.